Time,TemperatureF,DewpointF,PressureIn,WindDirection,WindDirectionDegrees,WindSpeedMPH,WindSpeedGustMPH,Humidity,HourlyPrecipIn,Conditions,Clouds,dailyrainin,SoftwareType,DateUTC
2013-08-12 00:00:00,74.6,71.0,29.95,East,90,1.0,15.0,88,0.01,,,0.00,weatherlink.com 1.10,2013-08-12 06:00:00,
2013-08-12 00:15:00,74.7,71.0,29.95,East,96,1.0,10.0,88,0.00,,,0.00,weatherlink.com 1.10,2013-08-12 06:15:00,
2013-08-12 00:30:00,74.7,70.0,29.95,ESE,110,3.0,9.0,86,0.00,,,0.00,weatherlink.com 1.10,2013-08-12 06:30:00,
2013-08-12 00:45:00,74.8,70.0,29.95,ESE,112,5.0,11.0,85,0.00,,,0.00,weatherlink.com 1.10,2013-08-12 06:45:00,
2013-08-12 01:00:00,74.9,71.0,29.95,ESE,105,8.0,13.0,87,0.00,,,0.00,weatherlink.com 1.10,2013-08-12 07:00:00,
2013-08-12 01:15:00,74.9,71.0,29.95,ESE,102,4.0,8.0,87,0.00,,,0.00,weatherlink.com 1.10,2013-08-12 07:15:00,
2013-08-12 01:30:00,75.0,71.0,29.96,ESE,112,5.0,10.0,86,0.00,,,0.00,weatherlink.com 1.10,2013-08-12 07:30:00,
2013-08-12 01:45:00,74.8,71.0,29.96,East,98,5.0,9.0,87,0.00,,,0.00,weatherlink.com 1.10,2013-08-12 07:45:00,
2013-08-12 02:00:00,74.6,71.0,29.95,East,100,2.0,8.0,88,0.00,,,0.00,weatherlink.com 1.10,2013-08-12 08:00:00,
2013-08-12 02:15:00,74.3,71.0,29.95,East,101,1.0,6.0,89,0.00,,,0.00,weatherlink.com 1.10,2013-08-12 08:15:00,
2013-08-12 02:30:00,74.2,71.0,29.98,NW,316,6.0,9.0,90,0.00,,,0.00,weatherlink.com 1.10,2013-08-12 08:30:00,
2013-08-12 02:45:00,74.4,71.0,29.96,NW,323,3.0,7.0,88,0.00,,,0.00,weatherlink.com 1.10,2013-08-12 08:45:00,
2013-08-12 03:00:00,74.9,71.0,29.94,East,91,1.0,8.0,87,0.00,,,0.00,weatherlink.com 1.10,2013-08-12 09:00:00,
2013-08-12 03:15:00,74.9,71.0,29.94,ESE,108,2.0,5.0,87,0.00,,,0.00,weatherlink.com 1.10,2013-08-12 09:15:00,
2013-08-12 03:30:00,74.9,71.0,29.95,ESE,108,0.0,3.0,88,0.00,,,0.00,weatherlink.com 1.10,2013-08-12 09:30:00,
2013-08-12 03:45:00,74.6,71.0,29.98,NW,313,10.0,20.0,89,0.01,,,0.01,weatherlink.com 1.10,2013-08-12 09:45:00,
2013-08-12 04:00:00,75.3,71.0,29.98,NW,307,4.0,10.0,86,0.01,,,0.01,weatherlink.com 1.10,2013-08-12 10:00:00,
2013-08-12 04:15:00,74.9,71.0,29.96,NW,316,1.0,8.0,87,0.01,,,0.01,weatherlink.com 1.10,2013-08-12 10:15:00,
2013-08-12 04:30:00,74.7,71.0,29.95,NW,316,0.0,3.0,87,0.01,,,0.01,weatherlink.com 1.10,2013-08-12 10:30:00,
2013-08-12 04:45:00,74.6,71.0,29.94,NW,316,0.0,2.0,88,0.00,,,0.01,weatherlink.com 1.10,2013-08-12 10:45:00,
2013-08-12 05:00:00,74.6,71.0,29.94,NW,322,0.0,3.0,88,0.00,,,0.01,weatherlink.com 1.10,2013-08-12 11:00:00,
2013-08-12 05:15:00,74.6,71.0,29.93,NW,323,0.0,0.0,88,0.00,,,0.01,weatherlink.com 1.10,2013-08-12 11:15:00,
2013-08-12 05:30:00,74.7,71.0,29.92,NW,323,0.0,3.0,89,0.00,,,0.01,weatherlink.com 1.10,2013-08-12 11:30:00,
2013-08-12 05:45:00,74.6,71.0,29.92,NW,322,0.0,3.0,89,0.00,,,0.01,weatherlink.com 1.10,2013-08-12 11:45:00,
2013-08-12 06:00:00,74.3,71.0,29.92,NW,322,0.0,0.0,90,0.00,,,0.01,weatherlink.com 1.10,2013-08-12 12:00:00,
2013-08-12 06:15:00,74.2,72.0,29.92,NW,322,2.0,3.0,91,0.00,,,0.01,weatherlink.com 1.10,2013-08-12 12:15:00,
2013-08-12 06:30:00,74.3,72.0,29.93,NW,322,0.0,5.0,91,0.00,,,0.01,weatherlink.com 1.10,2013-08-12 12:30:00,
2013-08-12 06:45:00,74.6,72.0,29.93,NW,323,0.0,0.0,90,0.00,,,0.01,weatherlink.com 1.10,2013-08-12 12:45:00,
2013-08-12 07:00:00,74.8,72.0,29.94,NW,323,0.0,0.0,90,0.00,,,0.01,weatherlink.com 1.10,2013-08-12 13:00:00,
2013-08-12 07:15:00,75.3,72.0,29.94,NW,323,0.0,0.0,89,0.00,,,0.01,weatherlink.com 1.10,2013-08-12 13:15:00,
2013-08-12 07:30:00,75.5,73.0,29.95,NW,323,3.0,5.0,90,0.00,,,0.01,weatherlink.com 1.10,2013-08-12 13:30:00,
2013-08-12 07:45:00,75.6,72.0,29.96,NW,305,9.0,9.0,89,0.00,,,0.01,weatherlink.com 1.10,2013-08-12 13:45:00,
2013-08-12 08:00:00,76.1,72.0,29.96,WNW,301,5.0,7.0,88,0.00,,,0.01,weatherlink.com 1.10,2013-08-12 14:00:00,
2013-08-12 08:15:00,76.6,73.0,29.95,WNW,296,0.0,5.0,87,0.00,,,0.01,weatherlink.com 1.10,2013-08-12 14:15:00,
2013-08-12 08:31:00,77.7,73.0,29.95,West,274,5.0,7.0,84,0.00,,,0.01,weatherlink.com 1.10,2013-08-12 14:31:00,
2013-08-12 08:46:00,79.3,72.0,29.95,SW,218,5.0,8.0,79,0.00,,,0.01,weatherlink.com 1.10,2013-08-12 14:46:00,
2013-08-12 09:01:00,79.8,72.0,29.95,SSW,212,5.0,10.0,78,0.00,,,0.01,weatherlink.com 1.10,2013-08-12 15:01:00,
2013-08-12 09:16:00,80.7,73.0,29.95,SSW,210,5.0,8.0,76,0.00,,,0.01,weatherlink.com 1.10,2013-08-12 15:16:00,
2013-08-12 09:31:00,80.8,72.0,29.95,SSW,212,4.0,9.0,75,0.00,,,0.01,weatherlink.com 1.10,2013-08-12 15:31:00,
2013-08-12 09:46:00,81.1,72.0,29.95,SW,218,3.0,9.0,73,0.00,,,0.01,weatherlink.com 1.10,2013-08-12 15:46:00,
2013-08-12 10:01:00,83.5,73.0,29.95,SW,220,3.0,7.0,70,0.00,,,0.01,weatherlink.com 1.10,2013-08-12 16:01:00,
2013-08-12 10:16:00,85.4,71.0,29.96,SW,218,5.0,12.0,63,0.00,,,0.01,weatherlink.com 1.10,2013-08-12 16:16:00,
2013-08-12 10:31:00,86.3,72.0,29.96,WSW,241,2.0,12.0,63,0.00,,,0.01,weatherlink.com 1.10,2013-08-12 16:31:00,
2013-08-12 10:46:00,86.7,72.0,29.95,West,272,5.0,13.0,62,0.00,,,0.01,weatherlink.com 1.10,2013-08-12 16:46:00,
2013-08-12 11:01:00,87.4,72.0,29.95,WSW,241,3.0,10.0,61,0.00,,,0.01,weatherlink.com 1.10,2013-08-12 17:01:00,
2013-08-12 11:16:00,88.3,72.0,29.95,West,261,2.0,12.0,59,0.00,,,0.01,weatherlink.com 1.10,2013-08-12 17:16:00,
2013-08-12 11:31:00,88.2,73.0,29.95,West,268,2.0,5.0,60,0.00,,,0.01,weatherlink.com 1.10,2013-08-12 17:31:00,
2013-08-12 11:46:00,90.1,72.0,29.94,WSW,248,3.0,10.0,56,0.00,,,0.01,weatherlink.com 1.10,2013-08-12 17:46:00,
2013-08-12 12:01:00,91.4,72.0,29.93,SW,228,0.0,10.0,54,0.00,,,0.01,weatherlink.com 1.10,2013-08-12 18:01:00,
2013-08-12 12:16:00,92.1,70.0,29.93,West,261,3.0,13.0,48,0.00,,,0.01,weatherlink.com 1.10,2013-08-12 18:16:00,
2013-08-12 12:31:00,92.2,69.0,29.93,WSW,246,6.0,13.0,47,0.00,,,0.01,weatherlink.com 1.10,2013-08-12 18:31:00,
2013-08-12 12:46:00,92.9,69.0,29.92,WSW,251,5.0,15.0,45,0.00,,,0.01,weatherlink.com 1.10,2013-08-12 18:46:00,
2013-08-12 13:01:00,93.2,69.0,29.92,WNW,285,8.0,15.0,45,0.00,,,0.01,weatherlink.com 1.10,2013-08-12 19:01:00,
2013-08-12 13:31:00,94.3,68.0,29.91,SW,232,0.0,14.0,42,0.00,,,0.01,weatherlink.com 1.10,2013-08-12 19:31:00,
2013-08-12 13:46:00,94.4,68.0,29.90,SW,215,5.0,12.0,42,0.00,,,0.01,weatherlink.com 1.10,2013-08-12 19:46:00,
2013-08-12 14:01:00,94.9,67.0,29.89,SW,220,4.0,9.0,40,0.00,,,0.01,weatherlink.com 1.10,2013-08-12 20:01:00,
2013-08-12 14:17:00,95.0,67.0,29.88,SSW,204,4.0,7.0,40,0.00,,,0.01,weatherlink.com 1.10,2013-08-12 20:17:00,
2013-08-12 14:32:00,95.6,66.0,29.88,SW,224,1.0,9.0,38,0.00,,,0.01,weatherlink.com 1.10,2013-08-12 20:32:00,
2013-08-12 14:47:00,96.0,67.0,29.87,SW,229,0.0,6.0,38,0.00,,,0.01,weatherlink.com 1.10,2013-08-12 20:47:00,
2013-08-12 15:02:00,96.2,67.0,29.87,SW,221,2.0,6.0,39,0.00,,,0.01,weatherlink.com 1.10,2013-08-12 21:02:00,
2013-08-12 15:17:00,95.5,68.0,29.86,SW,220,0.0,10.0,41,0.00,,,0.01,weatherlink.com 1.10,2013-08-12 21:17:00,
2013-08-12 15:32:00,95.1,68.0,29.84,SW,220,0.0,1.0,41,0.00,,,0.01,weatherlink.com 1.10,2013-08-12 21:32:00,
2013-08-12 15:47:00,95.0,68.0,29.84,SW,220,0.0,2.0,42,0.00,,,0.01,weatherlink.com 1.10,2013-08-12 21:47:00,
2013-08-12 16:02:00,96.2,69.0,29.84,SW,220,1.0,2.0,41,0.00,,,0.01,weatherlink.com 1.10,2013-08-12 22:02:00,
2013-08-12 16:17:00,95.6,69.0,29.84,SW,220,0.0,1.0,42,0.00,,,0.01,weatherlink.com 1.10,2013-08-12 22:17:00,
2013-08-12 16:32:00,95.4,68.0,29.84,SW,219,0.0,1.0,41,0.00,,,0.01,weatherlink.com 1.10,2013-08-12 22:32:00,
2013-08-12 16:47:00,94.9,69.0,29.84,SW,220,0.0,3.0,43,0.00,,,0.01,weatherlink.com 1.10,2013-08-12 22:47:00,
2013-08-12 17:02:00,91.5,71.0,29.84,NNW,343,0.0,9.0,51,0.00,,,0.01,weatherlink.com 1.10,2013-08-12 23:02:00,
2013-08-12 17:17:00,91.9,71.0,29.84,North,359,4.0,8.0,50,0.00,,,0.01,weatherlink.com 1.10,2013-08-12 23:17:00,
2013-08-12 17:32:00,91.5,72.0,29.84,North,4,4.0,8.0,53,0.00,,,0.01,weatherlink.com 1.10,2013-08-12 23:32:00,
2013-08-12 17:47:00,90.7,73.0,29.84,NNE,15,5.0,7.0,56,0.00,,,0.01,weatherlink.com 1.10,2013-08-12 23:47:00,
2013-08-12 18:02:00,90.0,74.0,29.83,NNE,12,3.0,5.0,59,0.00,,,0.01,weatherlink.com 1.10,2013-08-13 00:02:00,
2013-08-12 18:17:00,89.5,73.0,29.83,North,359,5.0,7.0,58,0.00,,,0.01,weatherlink.com 1.10,2013-08-13 00:17:00,
2013-08-12 18:32:00,88.6,74.0,29.83,North,10,4.0,6.0,62,0.00,,,0.01,weatherlink.com 1.10,2013-08-13 00:32:00,
2013-08-12 18:47:00,87.2,74.0,29.83,NNE,23,3.0,7.0,64,0.00,,,0.01,weatherlink.com 1.10,2013-08-13 00:47:00,
2013-08-12 19:02:00,86.2,69.0,29.85,NNW,339,5.0,14.0,57,0.00,,,0.01,weatherlink.com 1.10,2013-08-13 01:02:00,
2013-08-12 19:17:00,84.1,68.0,29.87,North,4,7.0,14.0,58,0.00,,,0.01,weatherlink.com 1.10,2013-08-13 01:17:00,
2013-08-12 19:32:00,82.3,68.0,29.88,NNW,335,0.0,9.0,62,0.00,,,0.01,weatherlink.com 1.10,2013-08-13 01:32:00,
2013-08-12 19:47:00,82.0,68.0,29.89,East,81,5.0,7.0,62,0.00,,,0.01,weatherlink.com 1.10,2013-08-13 01:47:00,
2013-08-12 20:02:00,81.9,67.0,29.89,NNE,27,3.0,12.0,60,0.00,,,0.01,weatherlink.com 1.10,2013-08-13 02:02:00,
2013-08-12 20:17:00,81.5,67.0,29.91,NE,52,2.0,9.0,62,0.00,,,0.01,weatherlink.com 1.10,2013-08-13 02:17:00,
2013-08-12 20:32:00,81.4,67.0,29.91,NE,47,3.0,7.0,62,0.00,,,0.01,weatherlink.com 1.10,2013-08-13 02:32:00,
2013-08-12 20:47:00,81.3,67.0,29.91,NE,43,0.0,11.0,62,0.00,,,0.01,weatherlink.com 1.10,2013-08-13 02:47:00,
2013-08-12 21:02:00,81.1,67.0,29.93,NE,40,0.0,4.0,62,0.00,,,0.01,weatherlink.com 1.10,2013-08-13 03:02:00,
2013-08-12 21:17:00,80.9,68.0,29.93,SSE,167,0.0,5.0,64,0.00,,,0.01,weatherlink.com 1.10,2013-08-13 03:17:00,
2013-08-12 21:32:00,80.8,68.0,29.93,SSE,167,0.0,0.0,65,0.00,,,0.01,weatherlink.com 1.10,2013-08-13 03:32:00,
2013-08-12 21:47:00,80.3,68.0,29.93,SSE,159,2.0,6.0,66,0.00,,,0.01,weatherlink.com 1.10,2013-08-13 03:47:00,
2013-08-12 22:02:00,77.9,69.0,29.92,SSE,155,2.0,5.0,74,0.00,,,0.01,weatherlink.com 1.10,2013-08-13 04:02:00,
2013-08-12 22:17:00,76.1,69.0,29.91,SSE,155,0.0,4.0,79,0.00,,,0.01,weatherlink.com 1.10,2013-08-13 04:17:00,
2013-08-12 22:33:00,75.5,69.0,29.90,SSE,155,0.0,5.0,81,0.00,,,0.01,weatherlink.com 1.10,2013-08-13 04:33:00,
2013-08-12 22:47:00,75.5,69.0,29.89,SSE,155,0.0,4.0,80,0.00,,,0.01,weatherlink.com 1.10,2013-08-13 04:47:00,
2013-08-12 23:02:00,75.5,69.0,29.89,SSE,156,0.0,0.0,80,0.00,,,0.01,weatherlink.com 1.10,2013-08-13 05:02:00,
2013-08-12 23:17:00,75.6,69.0,29.89,SSE,155,0.0,2.0,79,0.00,,,0.01,weatherlink.com 1.10,2013-08-13 05:17:00,
2013-08-12 23:32:00,75.5,69.0,29.89,SSE,155,2.0,5.0,79,0.00,,,0.01,weatherlink.com 1.10,2013-08-13 05:32:00,
2013-08-12 23:47:00,75.1,69.0,29.89,SSE,149,3.0,5.0,80,0.00,,,0.01,weatherlink.com 1.10,2013-08-13 05:47:00,